createdAt,value
2018-09-26T00:00:23.323Z,34.42
2018-09-26T00:01:31.519Z,34.56
2018-09-26T00:02:38.823Z,34.78
2018-09-26T00:03:51.627Z,34.86
2018-09-26T00:04:54.307Z,34.84
2018-09-26T00:05:56.979Z,34.37
2018-09-26T00:06:59.663Z,34.81
2018-09-26T00:08:02.246Z,34.95
2018-09-26T00:09:08.503Z,34.45
2018-09-26T00:10:11.107Z,34.43
2018-09-26T00:11:13.759Z,34.45
2018-09-26T00:12:16.350Z,34.82
2018-09-26T00:13:18.960Z,34.51
2018-09-26T00:14:21.606Z,34.92
2018-09-26T00:15:24.224Z,34.45
2018-09-26T00:16:26.879Z,34.96
2018-09-26T00:17:29.523Z,34.65
2018-09-26T00:18:32.122Z,34.70
2018-09-26T00:19:34.730Z,34.51
2018-09-26T00:20:37.331Z,34.55
2018-09-26T00:21:39.987Z,34.50
2018-09-26T00:22:42.636Z,34.52
2018-09-26T00:23:45.231Z,34.98
2018-09-26T00:24:47.823Z,34.86
2018-09-26T00:25:50.419Z,34.83
2018-09-26T00:26:53.064Z,34.99
2018-09-26T00:27:55.672Z,34.47
2018-09-26T00:28:58.259Z,34.50
2018-09-26T00:30:00.851Z,34.55
2018-09-26T00:31:03.463Z,34.73
2018-09-26T00:32:06.295Z,35.02
2018-09-26T00:33:08.895Z,34.56
2018-09-26T00:34:11.495Z,34.76
2018-09-26T00:35:14.112Z,35.10
2018-09-26T00:36:16.722Z,34.50
2018-09-26T00:37:19.387Z,34.71
2018-09-26T00:38:22.015Z,35.09
2018-09-26T00:39:24.629Z,34.63
2018-09-26T00:40:27.259Z,34.74
2018-09-26T00:41:29.903Z,34.94
2018-09-26T00:42:32.584Z,35.01
2018-09-26T00:43:35.183Z,35.20
2018-09-26T00:44:37.795Z,34.82
2018-09-26T00:45:40.404Z,34.84
2018-09-26T00:46:42.999Z,35.08
2018-09-26T00:47:45.758Z,34.87
2018-09-26T00:48:48.440Z,35.24
2018-09-26T00:49:51.059Z,34.84
2018-09-26T00:50:53.637Z,34.87
2018-09-26T00:51:56.227Z,35.13
2018-09-26T00:52:59.107Z,35.24
2018-09-26T00:54:01.716Z,34.72
2018-09-26T00:55:04.391Z,34.75
2018-09-26T00:56:07.067Z,34.73
2018-09-26T00:57:09.652Z,34.99
2018-09-26T00:58:12.603Z,34.90
2018-09-26T00:59:15.191Z,34.71
2018-09-26T01:00:17.779Z,35.19
2018-09-26T01:01:20.439Z,35.15
2018-09-26T01:02:23.039Z,34.77
2018-09-26T01:03:25.995Z,35.07
2018-09-26T01:04:28.599Z,35.37
2018-09-26T01:05:31.190Z,34.82
2018-09-26T01:06:33.797Z,34.99
2018-09-26T01:07:36.427Z,35.04
2018-09-26T01:08:39.339Z,34.97
2018-09-26T01:09:41.939Z,35.23
2018-09-26T01:10:44.559Z,35.71
2018-09-26T01:11:47.163Z,35.16
2018-09-26T01:12:49.999Z,35.09
2018-09-26T01:13:52.996Z,35.45
2018-09-26T01:14:55.600Z,35.33
2018-09-26T01:15:58.194Z,35.37
2018-09-26T01:17:00.807Z,35.40
2018-09-26T01:18:03.399Z,35.02
2018-09-26T01:19:06.336Z,35.15
2018-09-26T01:20:09.115Z,35.03
2018-09-26T01:21:11.720Z,35.22
2018-09-26T01:22:14.325Z,35.62
2018-09-26T01:23:16.940Z,35.42
2018-09-26T01:24:19.839Z,35.66
2018-09-26T01:25:22.472Z,34.90
2018-09-26T01:26:25.069Z,35.17
2018-09-26T01:27:32.267Z,35.64
2018-09-26T01:28:34.923Z,35.73
2018-09-26T01:29:37.839Z,35.62
2018-09-26T01:30:40.439Z,35.37
2018-09-26T01:31:43.027Z,35.15
2018-09-26T01:32:45.655Z,35.44
2018-09-26T01:33:48.251Z,35.33
2018-09-26T01:34:51.179Z,35.68
2018-09-26T01:35:53.860Z,35.89
2018-09-26T01:36:56.447Z,35.70
2018-09-26T01:37:59.059Z,35.88
2018-09-26T01:39:01.655Z,35.57
2018-09-26T01:40:04.383Z,35.56
2018-09-26T01:41:06.985Z,35.94
2018-09-26T01:42:09.617Z,35.97
2018-09-26T01:43:12.215Z,35.99
2018-09-26T01:44:14.806Z,35.91
2018-09-26T01:45:17.501Z,36.05
2018-09-26T01:46:20.091Z,35.83
2018-09-26T01:47:22.719Z,35.66
2018-09-26T01:48:25.315Z,35.59
2018-09-26T01:49:28.041Z,35.97
2018-09-26T01:50:30.747Z,35.83
2018-09-26T01:51:33.359Z,35.55
2018-09-26T01:52:35.969Z,35.95
2018-09-26T01:53:38.568Z,36.09
2018-09-26T01:54:41.155Z,35.63
2018-09-26T01:55:43.869Z,36.14
2018-09-26T01:56:46.475Z,35.65
2018-09-26T01:57:49.068Z,35.99
2018-09-26T01:58:51.661Z,35.65
2018-09-26T01:59:54.244Z,36.09
2018-09-26T02:00:56.940Z,35.97
2018-09-26T02:01:59.540Z,36.27
2018-09-26T02:03:02.163Z,35.67
2018-09-26T02:04:04.831Z,35.91
2018-09-26T02:05:07.559Z,36.21
2018-09-26T02:06:10.256Z,36.08
2018-09-26T02:07:12.895Z,35.82
2018-09-26T02:08:15.503Z,36.09
2018-09-26T02:09:18.106Z,36.04
2018-09-26T02:10:20.699Z,36.39
2018-09-26T02:11:23.407Z,36.20
2018-09-26T02:12:26.052Z,35.92
2018-09-26T02:13:28.647Z,36.17
2018-09-26T02:14:31.242Z,36.50
2018-09-26T02:15:33.843Z,35.79
2018-09-26T02:16:36.551Z,36.44
2018-09-26T02:17:39.151Z,36.22
2018-09-26T02:18:41.727Z,35.99
2018-09-26T02:19:44.331Z,36.45
2018-09-26T02:20:46.943Z,36.66
2018-09-26T02:21:49.627Z,36.24
2018-09-26T02:22:52.223Z,36.63
2018-09-26T02:23:54.823Z,36.38
2018-09-26T02:24:57.497Z,36.69
2018-09-26T02:26:00.102Z,36.37
2018-09-26T02:27:02.805Z,36.35
2018-09-26T02:28:05.395Z,36.42
2018-09-26T02:29:08.051Z,36.33
2018-09-26T02:30:10.655Z,36.53
2018-09-26T02:31:13.275Z,36.68
2018-09-26T02:32:15.972Z,37.00
2018-09-26T02:33:18.563Z,36.80
2018-09-26T02:34:21.175Z,36.73
2018-09-26T02:35:23.792Z,36.66
2018-09-26T02:36:26.391Z,37.01
2018-09-26T02:37:29.036Z,37.16
2018-09-26T02:38:31.639Z,36.70
2018-09-26T02:39:34.333Z,36.78
2018-09-26T02:40:36.947Z,37.40
2018-09-26T02:41:39.559Z,36.84
2018-09-26T02:42:42.523Z,37.09
2018-09-26T02:43:45.151Z,36.97
2018-09-26T02:44:47.739Z,37.22
2018-09-26T02:45:50.467Z,37.28
2018-09-26T02:46:53.071Z,36.94
2018-09-26T02:47:55.715Z,37.59
2018-09-26T02:49:04.792Z,37.03
2018-09-26T02:50:07.487Z,37.24
2018-09-26T02:51:10.107Z,37.43
2018-09-26T02:52:12.715Z,36.95
2018-09-26T02:53:15.388Z,37.49
2018-09-26T02:54:18.002Z,37.45
2018-09-26T02:55:20.626Z,37.42
2018-09-26T02:56:23.272Z,37.01
2018-09-26T02:57:25.904Z,37.08
2018-09-26T02:58:28.603Z,37.54
2018-09-26T02:59:31.208Z,37.21
2018-09-26T03:00:33.820Z,37.02
2018-09-26T03:01:36.422Z,37.15
2018-09-26T03:02:39.080Z,37.49
2018-09-26T03:03:41.767Z,37.11
2018-09-26T03:04:44.352Z,37.11
2018-09-26T03:05:46.955Z,37.10
2018-09-26T03:06:49.591Z,37.62
2018-09-26T03:07:52.197Z,37.47
2018-09-26T03:08:54.848Z,37.13
2018-09-26T03:09:57.517Z,37.62
2018-09-26T03:11:00.123Z,37.24
2018-09-26T03:12:02.735Z,37.04
2018-09-26T03:13:05.346Z,37.65
2018-09-26T03:14:08.127Z,37.01
2018-09-26T03:15:10.739Z,37.14
2018-09-26T03:16:13.339Z,37.05
2018-09-26T03:17:15.948Z,37.00
2018-09-26T03:18:18.555Z,37.31
2018-09-26T03:19:21.208Z,37.32
2018-09-26T03:20:23.799Z,37.29
2018-09-26T03:21:26.409Z,37.13
2018-09-26T03:22:29.007Z,37.71
2018-09-26T03:23:31.651Z,37.62
2018-09-26T03:24:34.293Z,37.46
2018-09-26T03:25:36.915Z,37.15
2018-09-26T03:26:39.659Z,37.37
2018-09-26T03:27:42.299Z,37.27
2018-09-26T03:28:44.928Z,37.09
2018-09-26T03:29:47.563Z,37.52
2018-09-26T03:30:50.166Z,37.24
2018-09-26T03:31:52.793Z,37.10
2018-09-26T03:32:55.417Z,37.48
2018-09-26T03:33:58.039Z,37.68
2018-09-26T03:35:00.674Z,37.59
2018-09-26T03:36:03.331Z,37.52
2018-09-26T03:37:06.255Z,37.74
2018-09-26T03:38:08.849Z,37.36
2018-09-26T03:39:11.467Z,37.68
2018-09-26T03:40:14.124Z,37.53
2018-09-26T03:41:16.744Z,37.31
2018-09-26T03:42:19.327Z,37.24
2018-09-26T03:43:21.934Z,37.82
2018-09-26T03:44:24.547Z,37.63
2018-09-26T03:45:27.199Z,37.29
2018-09-26T03:46:29.808Z,37.50
2018-09-26T03:47:32.416Z,37.82
2018-09-26T03:48:35.039Z,37.92
2018-09-26T03:49:37.625Z,37.37
2018-09-26T03:50:40.493Z,37.87
2018-09-26T03:51:43.092Z,37.53
2018-09-26T03:52:45.697Z,37.52
2018-09-26T03:53:48.309Z,37.38
2018-09-26T03:54:50.920Z,37.72
2018-09-26T03:55:53.616Z,37.41
2018-09-26T03:56:56.229Z,37.49
2018-09-26T03:57:59.730Z,37.94
2018-09-26T03:59:02.419Z,37.52
2018-09-26T04:00:05.140Z,37.96
2018-09-26T04:01:07.845Z,37.43
2018-09-26T04:02:10.440Z,37.44
2018-09-26T04:03:13.041Z,37.65
2018-09-26T04:04:15.649Z,37.93
2018-09-26T04:05:18.245Z,37.77
2018-09-26T04:06:20.917Z,37.46
2018-09-26T04:07:23.565Z,37.35
2018-09-26T04:08:26.189Z,37.80
2018-09-26T04:09:28.813Z,37.36
2018-09-26T04:10:31.419Z,37.89
2018-09-26T04:11:34.151Z,37.40
2018-09-26T04:12:36.845Z,37.64
2018-09-26T04:13:39.454Z,37.80
2018-09-26T04:14:42.079Z,37.95
2018-09-26T04:15:50.202Z,37.69
2018-09-26T04:16:52.872Z,37.84
2018-09-26T04:17:55.493Z,37.41
2018-09-26T04:18:58.177Z,37.52
2018-09-26T04:20:00.846Z,37.37
2018-09-26T04:21:03.509Z,37.72
2018-09-26T04:22:06.242Z,37.76
2018-09-26T04:23:08.844Z,37.46
2018-09-26T04:24:11.477Z,37.92
2018-09-26T04:25:14.095Z,37.56
2018-09-26T04:26:16.742Z,37.91
2018-09-26T04:27:19.412Z,37.86
2018-09-26T04:28:22.024Z,38.04
2018-09-26T04:29:24.721Z,37.93
2018-09-26T04:30:27.421Z,37.46
2018-09-26T04:31:29.945Z,37.92
2018-09-26T04:32:32.590Z,37.92
2018-09-26T04:33:35.219Z,37.45
2018-09-26T04:34:37.892Z,37.53
2018-09-26T04:35:40.518Z,37.69
2018-09-26T04:36:43.149Z,37.94
2018-09-26T04:37:45.777Z,38.02
2018-09-26T04:38:48.490Z,37.58
2018-09-26T04:39:51.041Z,37.72
2018-09-26T04:40:53.659Z,38.12
2018-09-26T04:41:56.282Z,37.53
2018-09-26T04:42:58.897Z,37.67
2018-09-26T04:44:01.505Z,38.05
2018-09-26T04:45:04.187Z,38.03
2018-09-26T04:46:06.877Z,37.93
2018-09-26T04:47:09.505Z,37.44
2018-09-26T04:48:12.113Z,38.08
2018-09-26T04:49:14.739Z,37.93
2018-09-26T04:50:17.400Z,37.40
2018-09-26T04:51:20.006Z,37.87
2018-09-26T04:52:22.610Z,37.61
2018-09-26T04:53:25.229Z,37.53
2018-09-26T04:54:27.861Z,37.45
2018-09-26T04:55:30.465Z,37.44
2018-09-26T04:56:33.085Z,37.78
2018-09-26T04:57:35.713Z,37.90
2018-09-26T04:58:38.351Z,37.41
2018-09-26T04:59:41.192Z,37.66
2018-09-26T05:00:43.825Z,37.73
2018-09-26T05:01:46.438Z,37.70
2018-09-26T05:02:49.095Z,37.58
2018-09-26T05:03:51.733Z,37.91
2018-09-26T05:04:54.350Z,37.93
2018-09-26T05:05:56.985Z,37.46
2018-09-26T05:06:59.613Z,37.80
2018-09-26T05:08:02.240Z,37.89
2018-09-26T05:09:08.789Z,37.39
2018-09-26T05:10:11.413Z,37.33
2018-09-26T05:11:14.033Z,37.38
2018-09-26T05:12:16.659Z,37.44
2018-09-26T05:13:19.293Z,37.94
2018-09-26T05:14:21.915Z,37.79
2018-09-26T05:15:24.529Z,38.08
2018-09-26T05:16:27.151Z,37.69
2018-09-26T05:17:29.769Z,38.05
2018-09-26T05:18:32.373Z,37.86
2018-09-26T05:19:35.001Z,37.68
2018-09-26T05:20:37.613Z,37.63
2018-09-26T05:21:40.229Z,37.71
2018-09-26T05:22:42.868Z,37.33
2018-09-26T05:23:45.541Z,37.37
2018-09-26T05:24:48.164Z,37.12
2018-09-26T05:25:50.781Z,37.31
2018-09-26T05:26:53.405Z,37.03
2018-09-26T05:27:56.008Z,37.62
2018-09-26T05:28:58.649Z,37.52
2018-09-26T05:30:01.282Z,37.49
2018-09-26T05:31:04.039Z,37.52
2018-09-26T05:32:06.734Z,37.51
2018-09-26T05:33:09.357Z,37.44
2018-09-26T05:34:11.974Z,37.14
2018-09-26T05:35:14.581Z,37.09
2018-09-26T05:36:17.230Z,37.37
2018-09-26T05:37:19.896Z,36.88
2018-09-26T05:38:22.538Z,36.91
2018-09-26T05:39:25.177Z,36.89
2018-09-26T05:40:27.801Z,37.39
2018-09-26T05:41:30.428Z,36.87
2018-09-26T05:42:33.045Z,37.23
2018-09-26T05:43:35.657Z,37.06
2018-09-26T05:44:38.433Z,37.27
2018-09-26T05:45:41.065Z,37.17
2018-09-26T05:46:43.680Z,37.35
2018-09-26T05:47:46.281Z,36.92
2018-09-26T05:48:48.901Z,37.04
2018-09-26T05:49:51.541Z,37.39
2018-09-26T05:50:54.185Z,37.30
2018-09-26T05:51:56.810Z,36.96
2018-09-26T05:52:59.449Z,37.10
2018-09-26T05:54:02.073Z,37.37
2018-09-26T05:55:04.765Z,37.47
2018-09-26T05:56:07.399Z,37.36
2018-09-26T05:57:10.031Z,37.07
2018-09-26T05:58:12.662Z,36.99
2018-09-26T05:59:15.291Z,36.99
2018-09-26T06:00:17.912Z,37.49
2018-09-26T06:01:20.562Z,37.37
2018-09-26T06:02:23.437Z,37.07
2018-09-26T06:03:26.053Z,37.33
2018-09-26T06:04:28.677Z,37.58
2018-09-26T06:05:31.377Z,37.08
2018-09-26T06:06:33.966Z,37.09
2018-09-26T06:07:36.585Z,37.16
2018-09-26T06:08:39.196Z,37.73
2018-09-26T06:09:41.817Z,37.57
2018-09-26T06:10:44.457Z,37.81
2018-09-26T06:11:47.058Z,37.40
2018-09-26T06:12:49.757Z,37.13
2018-09-26T06:13:52.451Z,37.74
2018-09-26T06:14:55.063Z,37.81
2018-09-26T06:15:57.672Z,37.44
2018-09-26T06:17:00.312Z,37.30
2018-09-26T06:18:02.949Z,37.61
2018-09-26T06:19:06.036Z,37.34
2018-09-26T06:20:08.717Z,37.87
2018-09-26T06:21:11.337Z,37.53
2018-09-26T06:22:13.971Z,38.01
2018-09-26T06:23:16.585Z,37.65
2018-09-26T06:24:19.190Z,37.82
2018-09-26T06:25:21.814Z,38.08
2018-09-26T06:26:24.545Z,37.54
2018-09-26T06:27:27.223Z,38.07
2018-09-26T06:28:29.837Z,37.65
2018-09-26T06:29:32.449Z,38.17
2018-09-26T06:30:35.097Z,38.16
2018-09-26T06:31:37.701Z,37.66
2018-09-26T06:32:40.321Z,38.13
2018-09-26T06:33:42.985Z,38.05
2018-09-26T06:34:45.637Z,38.18
2018-09-26T06:35:48.257Z,37.91
2018-09-26T06:36:50.881Z,38.03
2018-09-26T06:37:53.553Z,37.83
2018-09-26T06:38:56.165Z,38.16
2018-09-26T06:39:58.818Z,37.80
2018-09-26T06:41:01.545Z,38.28
2018-09-26T06:42:04.159Z,38.31
2018-09-26T06:43:07.032Z,38.45
2018-09-26T06:44:09.905Z,37.98
2018-09-26T06:45:12.550Z,38.43
2018-09-26T06:46:15.196Z,38.37
2018-09-26T06:47:17.824Z,38.26
2018-09-26T06:48:20.445Z,38.54
2018-09-26T06:49:23.113Z,38.47
2018-09-26T06:50:25.742Z,38.40
2018-09-26T06:51:28.357Z,38.49
2018-09-26T06:52:30.985Z,38.27
2018-09-26T06:53:33.621Z,38.26
2018-09-26T06:54:36.257Z,38.80
2018-09-26T06:55:38.865Z,38.53
2018-09-26T06:56:41.469Z,38.73
2018-09-26T06:57:44.081Z,38.49
2018-09-26T06:58:46.734Z,38.85
2018-09-26T06:59:49.357Z,38.73
2018-09-26T07:00:51.985Z,38.89
2018-09-26T07:01:54.601Z,38.63
2018-09-26T07:02:57.244Z,38.43
2018-09-26T07:04:00.117Z,38.48
2018-09-26T07:05:02.781Z,38.63
2018-09-26T07:06:05.432Z,39.24
2018-09-26T07:07:08.137Z,38.94
2018-09-26T07:08:10.749Z,38.93
2018-09-26T07:09:13.369Z,38.91
2018-09-26T07:10:15.995Z,39.10
2018-09-26T07:11:18.621Z,38.86
2018-09-26T07:12:21.222Z,39.21
2018-09-26T07:13:23.845Z,39.24
2018-09-26T07:14:26.471Z,39.22
2018-09-26T07:15:29.141Z,38.88
2018-09-26T07:16:31.752Z,38.66
2018-09-26T07:17:34.357Z,38.69
2018-09-26T07:18:37.028Z,39.18
2018-09-26T07:19:39.678Z,38.72
2018-09-26T07:20:42.282Z,39.43
2018-09-26T07:21:44.905Z,39.26
2018-09-26T07:22:47.565Z,38.92
2018-09-26T07:23:50.207Z,38.86
2018-09-26T07:24:52.826Z,38.96
2018-09-26T07:25:55.445Z,38.84
2018-09-26T07:26:58.062Z,38.83
2018-09-26T07:28:00.741Z,39.54
2018-09-26T07:29:03.365Z,39.33
2018-09-26T07:30:06.225Z,39.33
2018-09-26T07:31:08.861Z,38.79
2018-09-26T07:32:11.529Z,39.03
2018-09-26T07:33:14.149Z,39.52
2018-09-26T07:34:16.773Z,39.30
2018-09-26T07:35:19.673Z,39.56
2018-09-26T07:36:22.350Z,39.19
2018-09-26T07:37:24.953Z,39.36
2018-09-26T07:38:27.587Z,39.55
2018-09-26T07:39:30.238Z,39.19
2018-09-26T07:40:32.869Z,39.65
2018-09-26T07:41:35.801Z,39.13
2018-09-26T07:42:38.433Z,39.03
2018-09-26T07:43:41.055Z,39.02
2018-09-26T07:44:43.658Z,39.47
2018-09-26T07:45:46.326Z,39.26
2018-09-26T07:46:48.978Z,39.30
2018-09-26T07:47:51.609Z,39.17
2018-09-26T07:48:54.225Z,39.51
2018-09-26T07:49:56.931Z,39.25
2018-09-26T07:50:59.540Z,39.24
2018-09-26T07:52:02.173Z,39.61
2018-09-26T07:53:04.811Z,39.32
2018-09-26T07:54:07.461Z,39.75
2018-09-26T07:55:10.085Z,39.78
2018-09-26T07:56:12.729Z,39.76
2018-09-26T07:57:15.345Z,39.78
2018-09-26T07:58:17.957Z,39.85
2018-09-26T07:59:20.590Z,39.80
2018-09-26T08:00:23.213Z,39.34
2018-09-26T08:01:25.826Z,39.34
2018-09-26T08:02:28.452Z,39.58
2018-09-26T08:03:31.105Z,39.89
2018-09-26T08:04:33.759Z,39.92
2018-09-26T08:05:36.393Z,39.36
2018-09-26T08:06:39.005Z,39.70
2018-09-26T08:07:41.715Z,39.86
2018-09-26T08:08:44.357Z,39.88
2018-09-26T08:09:46.965Z,39.92
2018-09-26T08:10:49.589Z,39.58
2018-09-26T08:11:52.296Z,39.46
2018-09-26T08:12:54.889Z,39.99
2018-09-26T08:13:57.521Z,39.62
2018-09-26T08:15:00.125Z,39.60
2018-09-26T08:16:02.761Z,39.96
2018-09-26T08:17:05.381Z,39.44
2018-09-26T08:18:08.132Z,39.94
2018-09-26T08:19:10.909Z,39.74
2018-09-26T08:20:13.613Z,39.51
2018-09-26T08:21:16.233Z,40.09
2018-09-26T08:22:18.873Z,39.78
2018-09-26T08:23:21.486Z,40.10
2018-09-26T08:24:24.134Z,40.03
2018-09-26T08:25:26.749Z,39.94
2018-09-26T08:26:29.369Z,39.97
2018-09-26T08:27:32.000Z,40.14
2018-09-26T08:28:34.657Z,40.21
2018-09-26T08:29:37.265Z,39.65
2018-09-26T08:30:39.887Z,40.18
2018-09-26T08:31:42.517Z,39.64
2018-09-26T08:32:45.156Z,40.26
2018-09-26T08:33:47.784Z,40.08
2018-09-26T08:34:50.412Z,40.12
2018-09-26T08:35:53.045Z,39.65
2018-09-26T08:36:55.791Z,39.91
2018-09-26T08:37:58.412Z,39.91
2018-09-26T08:39:01.017Z,39.78
2018-09-26T08:40:03.730Z,39.97
2018-09-26T08:41:06.369Z,40.10
2018-09-26T08:42:08.965Z,39.93
2018-09-26T08:43:11.578Z,40.01
2018-09-26T08:44:14.186Z,40.34
2018-09-26T08:45:16.879Z,40.15
2018-09-26T08:46:19.502Z,40.36
2018-09-26T08:47:22.146Z,40.61
2018-09-26T08:48:24.789Z,39.95
2018-09-26T08:49:27.497Z,39.95
2018-09-26T08:50:30.138Z,40.03
2018-09-26T08:51:32.749Z,39.91
2018-09-26T08:52:35.381Z,40.38
2018-09-26T08:53:38.013Z,40.11
2018-09-26T08:54:40.654Z,40.08
2018-09-26T08:55:43.341Z,40.50
2018-09-26T08:56:45.980Z,40.08
2018-09-26T08:57:48.616Z,40.06
2018-09-26T08:58:51.273Z,40.49
2018-09-26T08:59:53.886Z,40.57
2018-09-26T09:00:56.547Z,40.32
2018-09-26T09:01:59.161Z,40.52
2018-09-26T09:03:01.799Z,40.19
2018-09-26T09:04:04.461Z,40.46
2018-09-26T09:05:07.133Z,40.07
2018-09-26T09:06:09.787Z,40.50
2018-09-26T09:07:12.407Z,40.02
2018-09-26T09:08:15.024Z,40.02
2018-09-26T09:09:17.657Z,40.04
2018-09-26T09:10:20.271Z,40.45
2018-09-26T09:11:22.901Z,40.17
2018-09-26T09:12:25.533Z,40.18
2018-09-26T09:13:28.155Z,40.21
2018-09-26T09:14:30.881Z,40.48
2018-09-26T09:15:33.401Z,40.59
2018-09-26T09:16:36.017Z,40.64
2018-09-26T09:17:38.649Z,40.65
2018-09-26T09:18:41.309Z,40.09
2018-09-26T09:19:43.925Z,40.64
2018-09-26T09:20:46.529Z,40.79
2018-09-26T09:21:49.187Z,40.77
2018-09-26T09:22:51.805Z,40.69
2018-09-26T09:23:54.458Z,40.54
2018-09-26T09:24:57.068Z,40.71
2018-09-26T09:25:59.704Z,40.22
2018-09-26T09:27:02.311Z,40.71
2018-09-26T09:28:04.966Z,40.35
2018-09-26T09:29:07.557Z,40.74
2018-09-26T09:30:10.170Z,40.81
2018-09-26T09:31:12.739Z,40.37
2018-09-26T09:32:15.338Z,40.35
2018-09-26T09:33:17.896Z,40.74
2018-09-26T09:34:20.491Z,40.93
2018-09-26T09:35:23.125Z,40.73
2018-09-26T09:36:25.742Z,40.49
2018-09-26T09:37:28.377Z,40.71
2018-09-26T09:38:31.008Z,40.55
2018-09-26T09:39:33.634Z,40.80
2018-09-26T09:40:36.257Z,40.79
2018-09-26T09:41:38.904Z,40.89
2018-09-26T09:42:41.617Z,40.41
2018-09-26T09:43:44.241Z,40.69
2018-09-26T09:44:46.848Z,40.31
2018-09-26T09:45:49.468Z,40.51
2018-09-26T09:46:52.109Z,40.39
2018-09-26T09:47:54.654Z,41.04
2018-09-26T09:48:57.219Z,40.52
2018-09-26T09:49:59.769Z,40.65
2018-09-26T09:51:02.398Z,41.04
2018-09-26T09:52:05.018Z,40.74
2018-09-26T09:53:07.586Z,40.45
2018-09-26T09:54:10.163Z,40.48
2018-09-26T09:55:12.773Z,40.56
2018-09-26T09:56:15.369Z,40.47
2018-09-26T09:57:17.924Z,40.62
2018-09-26T09:58:21.248Z,40.52
2018-09-26T09:59:23.848Z,40.86
2018-09-26T10:00:31.977Z,40.99
2018-09-26T10:01:34.551Z,40.67
2018-09-26T10:02:37.194Z,40.37
2018-09-26T10:03:39.686Z,40.47
2018-09-26T10:04:42.290Z,40.97
2018-09-26T10:05:44.868Z,41.04
2018-09-26T10:06:47.446Z,40.92
2018-09-26T10:07:50.018Z,40.81
2018-09-26T10:08:52.704Z,40.68
2018-09-26T10:09:55.323Z,40.99
2018-09-26T10:10:57.895Z,41.03
2018-09-26T10:12:00.474Z,40.66
2018-09-26T10:13:03.078Z,41.03
2018-09-26T10:14:05.711Z,41.19
2018-09-26T10:15:08.287Z,41.33
2018-09-26T10:16:10.874Z,40.98
2018-09-26T10:17:13.490Z,41.35
2018-09-26T10:18:16.074Z,41.44
2018-09-26T10:19:18.654Z,41.46
2018-09-26T10:20:21.289Z,41.09
2018-09-26T10:21:23.922Z,41.42
2018-09-26T10:22:26.482Z,41.16
2018-09-26T10:23:29.043Z,41.17
2018-09-26T10:24:31.621Z,41.16
2018-09-26T10:25:34.210Z,41.21
2018-09-26T10:26:36.782Z,40.53
2018-09-26T10:27:39.369Z,40.73
2018-09-26T10:28:41.949Z,41.19
2018-09-26T10:29:44.542Z,41.11
2018-09-26T10:30:47.126Z,40.85
2018-09-26T10:31:49.690Z,41.07
2018-09-26T10:32:52.573Z,40.56
2018-09-26T10:33:55.178Z,41.13
2018-09-26T10:34:57.889Z,40.67
2018-09-26T10:36:00.450Z,40.78
2018-09-26T10:37:03.034Z,40.85
2018-09-26T10:38:05.652Z,40.55
2018-09-26T10:39:09.146Z,40.92
2018-09-26T10:40:11.800Z,40.61
2018-09-26T10:41:14.538Z,40.61
2018-09-26T10:42:17.106Z,40.94
2018-09-26T10:43:19.661Z,40.70
2018-09-26T10:44:22.359Z,40.50
2018-09-26T10:45:24.930Z,40.64
2018-09-26T10:46:27.537Z,40.59
2018-09-26T10:47:30.126Z,40.61
2018-09-26T10:48:32.694Z,40.54
2018-09-26T10:49:35.450Z,41.06
2018-09-26T10:50:38.014Z,40.55
2018-09-26T10:51:40.574Z,40.78
2018-09-26T10:52:43.143Z,41.08
2018-09-26T10:53:45.725Z,40.71
2018-09-26T10:54:48.289Z,40.37
2018-09-26T10:55:50.850Z,40.29
2018-09-26T10:56:53.419Z,40.19
2018-09-26T10:57:56.036Z,40.28
2018-09-26T10:58:58.618Z,40.15
2018-09-26T11:00:01.190Z,40.19
2018-09-26T11:01:03.802Z,39.72
2018-09-26T11:02:06.454Z,39.70
2018-09-26T11:03:08.998Z,39.28
2018-09-26T11:04:11.630Z,39.09
2018-09-26T11:05:14.159Z,38.98
2018-09-26T11:06:16.754Z,39.38
2018-09-26T11:07:19.352Z,38.98
2018-09-26T11:08:21.964Z,38.57
2018-09-26T11:09:24.530Z,38.67
2018-09-26T11:10:27.335Z,39.12
2018-09-26T11:11:29.854Z,38.88
2018-09-26T11:12:32.436Z,38.16
2018-09-26T11:13:35.002Z,38.66
2018-09-26T11:14:37.600Z,38.18
2018-09-26T11:15:40.190Z,37.82
2018-09-26T11:16:42.746Z,37.92
2018-09-26T11:17:45.364Z,38.29
2018-09-26T11:18:47.999Z,38.13
2018-09-26T11:19:50.567Z,37.88
2018-09-26T11:20:53.122Z,37.81
2018-09-26T11:21:55.695Z,37.98
2018-09-26T11:22:58.286Z,38.13
2018-09-26T11:24:01.772Z,37.59
2018-09-26T11:25:04.358Z,37.76
2018-09-26T11:26:07.038Z,38.02
2018-09-26T11:27:09.601Z,37.61
2018-09-26T11:28:12.233Z,37.77
2018-09-26T11:29:14.810Z,37.63
2018-09-26T11:30:17.362Z,37.51
2018-09-26T11:31:19.954Z,37.24
2018-09-26T11:32:22.592Z,37.90
2018-09-26T11:33:25.240Z,37.27
2018-09-26T11:34:27.905Z,37.44
2018-09-26T11:35:30.372Z,37.26
2018-09-26T11:36:32.926Z,37.30
2018-09-26T11:37:35.486Z,37.61
2018-09-26T11:38:38.066Z,37.62
2018-09-26T11:39:40.662Z,37.10
2018-09-26T11:40:43.283Z,37.01
2018-09-26T11:41:45.885Z,37.20
2018-09-26T11:42:48.450Z,36.99
2018-09-26T11:43:51.036Z,36.90
2018-09-26T11:44:53.618Z,37.08
2018-09-26T11:45:56.234Z,36.92
2018-09-26T11:46:58.839Z,37.02
2018-09-26T11:48:01.468Z,36.88
2018-09-26T11:49:04.239Z,36.88
2018-09-26T11:50:06.912Z,36.70
2018-09-26T11:51:09.796Z,36.33
2018-09-26T11:52:12.458Z,36.53
2018-09-26T11:53:15.053Z,36.18
2018-09-26T11:54:17.697Z,36.10
2018-09-26T11:55:20.333Z,36.11
2018-09-26T11:56:23.045Z,36.39
2018-09-26T11:57:25.642Z,35.85
2018-09-26T11:58:28.261Z,36.09
2018-09-26T11:59:30.933Z,36.06
2018-09-26T12:00:33.609Z,36.03
2018-09-26T12:01:36.205Z,36.04
2018-09-26T12:02:38.844Z,35.97
2018-09-26T12:03:41.459Z,35.60
2018-09-26T12:04:44.098Z,35.20
2018-09-26T12:05:46.721Z,35.82
2018-09-26T12:06:49.349Z,35.27
2018-09-26T12:07:51.966Z,35.39
2018-09-26T12:08:54.597Z,35.22
2018-09-26T12:09:57.213Z,34.92
2018-09-26T12:10:59.820Z,34.84
2018-09-26T12:12:02.449Z,35.12
2018-09-26T12:13:05.062Z,34.69
2018-09-26T12:14:07.790Z,34.40
2018-09-26T12:15:10.397Z,34.54
2018-09-26T12:16:13.017Z,34.60
2018-09-26T12:17:15.664Z,34.80
2018-09-26T12:18:18.377Z,34.11
2018-09-26T12:19:21.042Z,34.08
2018-09-26T12:20:23.620Z,34.47
2018-09-26T12:21:30.539Z,34.86
2018-09-26T12:22:29.096Z,34.08
2018-09-26T12:23:31.713Z,34.36
2018-09-26T12:24:34.357Z,34.15
2018-09-26T12:25:36.979Z,34.55
2018-09-26T12:26:39.585Z,34.07
2018-09-26T12:27:42.196Z,33.46
2018-09-26T12:28:44.849Z,33.86
2018-09-26T12:29:47.467Z,33.75
2018-09-26T12:30:50.181Z,33.47
2018-09-26T12:31:52.749Z,33.73
2018-09-26T12:32:55.418Z,33.85
2018-09-26T12:33:58.046Z,33.57
2018-09-26T12:35:00.728Z,33.85
2018-09-26T12:36:03.402Z,33.30
2018-09-26T12:37:06.241Z,33.65
2018-09-26T12:38:08.853Z,33.22
2018-09-26T12:39:11.602Z,33.34
2018-09-26T12:40:14.297Z,33.39
2018-09-26T12:41:16.889Z,33.31
2018-09-26T12:42:19.540Z,32.97
2018-09-26T12:43:22.513Z,33.48
2018-09-26T12:44:25.131Z,33.30
2018-09-26T12:45:28.601Z,33.24
2018-09-26T12:46:31.222Z,33.25
2018-09-26T12:47:33.833Z,33.27
2018-09-26T12:48:36.822Z,33.18
2018-09-26T12:49:39.445Z,33.36
2018-09-26T12:50:42.085Z,33.15
2018-09-26T12:51:44.726Z,32.88
2018-09-26T12:52:47.344Z,33.06
2018-09-26T12:53:50.456Z,33.22
2018-09-26T12:54:52.914Z,33.01
2018-09-26T12:55:55.557Z,33.11
2018-09-26T12:56:58.182Z,33.11
2018-09-26T12:58:00.805Z,33.36
2018-09-26T12:59:03.973Z,32.65
2018-09-26T13:00:06.745Z,33.13
2018-09-26T13:01:09.389Z,32.71
2018-09-26T13:02:12.024Z,32.71
2018-09-26T13:03:14.633Z,32.58
2018-09-26T13:04:17.259Z,32.92
2018-09-26T13:05:19.890Z,32.57
2018-09-26T13:06:22.591Z,32.66
2018-09-26T13:07:25.162Z,32.86
2018-09-26T13:08:27.854Z,32.19
2018-09-26T13:09:30.713Z,32.67
2018-09-26T13:10:33.329Z,32.32
2018-09-26T13:11:35.961Z,32.75
2018-09-26T13:12:38.602Z,32.41
2018-09-26T13:13:41.235Z,32.85
2018-09-26T13:14:43.925Z,32.31
2018-09-26T13:15:46.546Z,32.79
2018-09-26T13:16:49.197Z,32.04
2018-09-26T13:17:51.841Z,31.83
2018-09-26T13:18:54.506Z,32.68
2018-09-26T13:19:57.185Z,32.72
2018-09-26T13:20:59.811Z,32.52
2018-09-26T13:22:02.510Z,32.58
2018-09-26T13:23:05.245Z,32.54
2018-09-26T13:24:07.933Z,32.07
2018-09-26T13:25:10.701Z,32.61
2018-09-26T13:26:13.400Z,32.36
2018-09-26T13:27:15.977Z,32.64